Time;durP1;ratioP1;P1;durP2;ratioP2;P2;SDS_P1;SDS_P2;PMS_P1;PMS_P2;Temp;Humidity;BMP_temperature;BMP_pressure;BME280_temperature;BME280_humidity;BME280_pressure;Samples;Min_cycle;Max_cycle;Signal;HPM_P1;HPM_P2
2022/11/11 00:01:16;;;;;;;8.80;4.03;;;11.90;99.90;;;;;;4912648;29;20056;-74
2022/11/11 00:03:42;;;;;;;8.35;4.82;;;12.00;99.90;;;;;;4882471;29;20475;-73
2022/11/11 00:06:09;;;;;;;;;;;11.90;99.90;;;;;;4896301;29;20071;-72
2022/11/11 00:08:35;;;;;;;9.68;5.28;;;11.90;99.90;;;;;;4896602;29;19982;-72
2022/11/11 00:11:19;;;;;;;7.05;4.40;;;11.90;99.90;;;;;;4896135;29;20044;-73
2022/11/11 00:13:44;;;;;;;7.10;4.55;;;11.90;99.90;;;;;;4895917;29;20164;-73
2022/11/11 00:16:16;;;;;;;10.63;4.93;;;11.80;99.90;;;;;;4895115;29;20072;-73
2022/11/11 00:27:16;;;;;;;10.82;5.05;;;11.80;99.90;;;;;;4886337;29;20044;-73
2022/11/11 00:29:45;;;;;;;9.82;5.30;;;11.80;99.90;;;;;;4899592;29;20099;-72
2022/11/11 00:32:25;;;;;;;9.70;5.13;;;11.80;99.90;;;;;;4897876;29;20099;-73
2022/11/11 00:37:38;;;;;;;8.52;5.53;;;11.80;99.90;;;;;;4900084;29;20063;-73
2022/11/11 00:40:04;;;;;;;;;;;11.80;99.90;;;;;;4899694;29;20083;-73
2022/11/11 00:42:29;;;;;;;9.30;5.35;;;11.80;99.90;;;;;;4883561;29;19962;-73
2022/11/11 00:44:55;;;;;;;10.43;5.47;;;11.80;99.90;;;;;;4898374;29;20525;-73
2022/11/11 00:52:53;;;;;;;10.95;5.57;;;11.80;99.90;;;;;;4909690;29;20059;-73
2022/11/11 00:55:19;;;;;;;11.63;5.30;;;11.80;99.90;;;;;;4895279;29;20052;-73
2022/11/11 00:57:45;;;;;;;9.45;4.70;;;11.80;99.90;;;;;;4881967;29;20095;-73
2022/11/11 01:00:11;;;;;;;10.88;5.45;;;11.80;99.90;;;;;;4899386;29;20048;-74
2022/11/11 01:02:37;;;;;;;11.88;5.70;;;11.90;99.90;;;;;;4895234;29;20115;-73
2022/11/11 01:05:03;;;;;;;9.35;5.28;;;11.90;99.90;;;;;;4912168;29;20266;-74
2022/11/11 01:07:29;;;;;;;11.43;5.35;;;11.90;99.90;;;;;;4866298;29;20455;-73
2022/11/11 01:09:54;;;;;;;9.82;5.60;;;11.90;99.90;;;;;;4897924;29;20183;-74
2022/11/11 01:12:20;;;;;;;11.20;5.72;;;11.90;99.90;;;;;;4912278;29;20067;-72
2022/11/11 01:14:46;;;;;;;9.57;5.53;;;11.90;99.90;;;;;;4912126;29;20040;-72
2022/11/11 01:17:12;;;;;;;9.52;5.30;;;11.90;99.90;;;;;;4897319;29;20496;-72
2022/11/11 01:19:38;;;;;;;11.43;5.97;;;11.90;99.90;;;;;;4895910;29;20127;-72
2022/11/11 01:22:03;;;;;;;10.25;5.53;;;11.90;99.90;;;;;;4913081;29;20183;-73
2022/11/11 01:24:29;;;;;;;6.57;5.10;;;11.90;99.90;;;;;;4911894;29;20040;-72
2022/11/11 01:26:55;;;;;;;8.63;5.65;;;11.80;99.90;;;;;;4888233;29;20059;-73
2022/11/11 01:29:20;;;;;;;9.75;6.13;;;11.90;99.90;;;;;;4897933;29;20181;-73
2022/11/11 01:31:46;;;;;;;13.10;5.75;;;11.80;99.90;;;;;;4896907;29;20174;-73
2022/11/11 01:34:11;;;;;;;10.95;6.10;;;11.80;99.90;;;;;;4912593;29;20044;-73
2022/11/11 01:36:37;;;;;;;10.18;6.05;;;11.80;99.90;;;;;;4912558;29;20051;-72
2022/11/11 01:39:03;;;;;;;9.38;5.70;;;11.90;99.90;;;;;;4913438;29;20063;-72
2022/11/11 01:41:32;;;;;;;10.23;5.57;;;11.80;99.90;;;;;;4885185;29;20504;-73
2022/11/11 01:44:00;;;;;;;8.88;5.72;;;11.80;99.90;;;;;;4894469;29;20055;-71
2022/11/11 01:46:48;;;;;;;9.38;5.25;;;11.80;99.90;;;;;;4898142;29;20059;-72
2022/11/11 01:49:35;;;;;;;9.32;5.00;;;11.80;99.90;;;;;;4885322;29;20052;-73
2022/11/11 01:52:03;;;;;;;10.52;5.88;;;11.80;99.90;;;;;;4878662;29;20044;-74
2022/11/11 01:54:34;;;;;;;8.82;5.22;;;11.80;99.90;;;;;;4913968;29;20044;-72
2022/11/11 01:57:06;;;;;;;9.88;5.50;;;11.80;99.90;;;;;;4883056;29;20040;-71
2022/11/11 01:59:34;;;;;;;9.45;5.78;;;11.80;99.90;;;;;;4898175;29;20131;-73
2022/11/11 02:02:04;;;;;;;10.45;5.30;;;11.90;99.90;;;;;;4897063;29;20047;-72
2022/11/11 02:07:16;;;;;;;11.40;6.10;;;11.90;99.90;;;;;;4896998;29;20415;-73
2022/11/11 02:09:45;;;;;;;;;;;11.90;99.90;;;;;;4883123;29;20409;-73
2022/11/11 02:14:59;;;;;;;9.90;5.18;;;11.90;99.90;;;;;;4900781;29;20087;-73
2022/11/11 02:17:27;;;;;;;6.88;4.57;;;11.90;99.90;;;;;;4897871;29;20492;-74
2022/11/11 02:19:57;;;;;;;8.40;5.35;;;11.80;99.90;;;;;;4881438;29;20115;-73
2022/11/11 02:22:40;;;;;;;9.50;5.50;;;11.90;99.90;;;;;;4914229;29;20126;-73
2022/11/11 02:25:09;;;;;;;8.57;5.45;;;11.90;99.90;;;;;;4898180;29;20511;-73
2022/11/11 02:27:37;;;;;;;8.93;6.00;;;11.90;99.90;;;;;;4881794;29;20052;-73
2022/11/11 02:30:05;;;;;;;10.45;6.05;;;11.90;99.90;;;;;;4899749;29;20044;-73
2022/11/11 02:32:31;;;;;;;12.32;6.53;;;11.90;99.90;;;;;;4879864;29;20087;-73
2022/11/11 02:34:57;;;;;;;11.18;6.75;;;11.90;99.90;;;;;;4894931;29;20071;-73
2022/11/11 02:37:27;;;;;;;11.63;6.55;;;11.80;99.90;;;;;;4896487;29;20131;-74
2022/11/11 02:39:58;;;;;;;10.93;6.82;;;11.80;99.90;;;;;;4885647;29;20058;-73
2022/11/11 02:42:24;;;;;;;14.60;6.88;;;11.90;99.90;;;;;;4896622;29;20453;-73
2022/11/11 02:44:57;;;;;;;9.45;6.25;;;11.80;99.90;;;;;;4887135;29;20048;-73
2022/11/11 02:47:26;;;;;;;12.15;6.82;;;11.80;99.90;;;;;;4880128;29;20155;-73
2022/11/11 02:49:52;;;;;;;14.68;7.55;;;11.80;99.90;;;;;;4896228;29;20048;-73
2022/11/11 02:52:18;;;;;;;9.75;6.40;;;11.70;99.90;;;;;;4912047;29;20079;-73
2022/11/11 02:54:43;;;;;;;12.27;7.78;;;11.70;99.90;;;;;;4912702;29;20064;-73
2022/11/11 02:57:09;;;;;;;10.93;7.90;;;11.70;99.90;;;;;;4894864;29;20074;-73
2022/11/11 02:59:37;;;;;;;12.35;8.38;;;11.60;99.90;;;;;;4899188;29;20055;-73
2022/11/11 03:02:04;;;;;;;14.48;8.35;;;11.60;99.90;;;;;;4870124;29;20136;-73
2022/11/11 03:04:29;;;;;;;13.52;8.80;;;11.60;99.90;;;;;;4880735;29;20489;-73
2022/11/11 03:06:55;;;;;;;16.05;9.45;;;11.60;99.90;;;;;;4879259;29;20138;-73
2022/11/11 03:09:21;;;;;;;13.25;8.18;;;11.50;99.90;;;;;;4870725;29;20041;-73
2022/11/11 03:11:46;;;;;;;11.07;7.60;;;11.50;99.90;;;;;;4878585;29;20503;-73
2022/11/11 03:14:12;;;;;;;19.10;10.02;;;11.40;99.90;;;;;;4912113;29;20127;-73
2022/11/11 03:19:22;;;;;;;17.17;10.65;;;11.40;99.90;;;;;;4911776;29;20041;-73
2022/11/11 03:21:47;;;;;;;14.52;9.80;;;11.30;99.90;;;;;;4884526;29;20107;-73
2022/11/11 03:24:13;;;;;;;15.07;9.43;;;11.30;99.90;;;;;;4879100;29;20044;-73
2022/11/11 03:26:39;;;;;;;18.00;10.27;;;11.30;99.90;;;;;;4881158;29;20048;-73
2022/11/11 03:29:05;;;;;;;14.38;10.50;;;11.30;99.90;;;;;;4895813;29;20047;-72
2022/11/11 03:31:30;;;;;;;14.77;10.20;;;11.30;99.90;;;;;;4895585;29;20399;-72
2022/11/11 03:34:16;;;;;;;15.52;11.75;;;11.30;99.90;;;;;;4880364;29;20052;-72
2022/11/11 03:39:27;;;;;;;14.10;10.43;;;11.20;99.90;;;;;;4895517;29;20063;-73
2022/11/11 03:41:53;;;;;;;14.57;10.05;;;11.20;99.90;;;;;;4896401;29;20127;-72
2022/11/11 03:44:19;;;;;;;12.60;9.95;;;11.20;99.90;;;;;;4912464;29;20142;-72
2022/11/11 03:46:44;;;;;;;15.80;11.07;;;11.20;99.90;;;;;;4897319;29;20567;-73
2022/11/11 03:49:10;;;;;;;14.68;10.95;;;11.20;99.90;;;;;;4896848;29;22230;-73
2022/11/11 03:51:36;;;;;;;14.85;11.48;;;11.20;99.90;;;;;;4897496;29;20416;-72
2022/11/11 03:54:01;;;;;;;17.00;11.15;;;11.20;99.90;;;;;;4892888;29;20068;-72
2022/11/11 03:56:27;;;;;;;15.30;11.05;;;11.20;99.90;;;;;;4894160;29;20134;-72
2022/11/11 03:58:53;;;;;;;12.77;10.75;;;11.10;99.90;;;;;;4884995;29;20047;-73
2022/11/11 04:12:15;;;;;;;17.35;11.77;;;11.10;99.90;;;;;;4898182;29;20488;-73
2022/11/11 04:17:25;;;;;;;17.30;12.23;;;11.20;99.90;;;;;;4914251;29;20111;-73
2022/11/11 04:22:40;;;;;;;13.88;10.82;;;11.20;99.90;;;;;;4899364;29;20098;-73
2022/11/11 04:29:27;;;;;;;18.42;12.70;;;11.10;99.90;;;;;;4899453;29;20052;-73
2022/11/11 04:30:36;;;;;;;16.73;12.35;;;11.10;99.90;;;;;;4893216;29;20424;-73
2022/11/11 04:33:02;;;;;;;18.88;12.98;;;11.10;99.90;;;;;;4866037;29;20056;-72
2022/11/11 04:35:28;;;;;;;14.52;10.48;;;11.20;99.90;;;;;;4883616;29;20048;-72
2022/11/11 04:41:02;;;;;;;15.95;11.85;;;11.10;99.90;;;;;;4898921;29;20147;-72
2022/11/11 04:43:23;;;;;;;18.83;12.40;;;11.10;99.90;;;;;;4889886;29;20051;-73
2022/11/11 04:45:49;;;;;;;16.13;12.23;;;11.10;99.90;;;;;;4875188;29;20407;-74
2022/11/11 04:48:17;;;;;;;20.38;14.60;;;11.10;99.90;;;;;;4899170;29;20080;-73
2022/11/11 04:50:43;;;;;;;17.33;12.93;;;11.10;99.90;;;;;;4903616;29;20051;-73
2022/11/11 04:53:12;;;;;;;18.60;12.98;;;11.10;99.90;;;;;;4900212;29;20097;-73
2022/11/11 04:58:25;;;;;;;16.48;12.70;;;11.10;99.90;;;;;;4900361;29;20083;-73
2022/11/11 05:00:51;;;;;;;13.50;10.77;;;11.10;99.90;;;;;;4899670;29;20048;-72
2022/11/11 05:03:20;;;;;;;18.13;13.48;;;11.10;99.90;;;;;;4899985;29;20052;-73
2022/11/11 05:08:54;;;;;;;18.58;12.73;;;11.00;99.90;;;;;;4894442;29;20092;-73
2022/11/11 05:11:27;;;;;;;18.75;14.10;;;11.00;99.90;;;;;;4907459;29;20458;-73
2022/11/11 05:22:25;;;;;;;17.95;14.15;;;11.00;99.90;;;;;;4898228;29;20052;-73
2022/11/11 05:27:36;;;;;;;20.73;14.60;;;11.00;99.90;;;;;;4899665;29;20508;-73
2022/11/11 05:30:02;;;;;;;17.08;13.15;;;11.00;99.90;;;;;;4884427;29;20059;-73
2022/11/11 05:32:28;;;;;;;20.13;15.23;;;11.00;99.90;;;;;;4895878;29;20040;-73
2022/11/11 05:34:54;;;;;;;18.00;13.25;;;11.00;99.90;;;;;;4897405;29;20471;-73
2022/11/11 05:37:20;;;;;;;18.45;14.25;;;11.00;99.90;;;;;;4912819;29;20116;-73
2022/11/11 05:39:46;;;;;;;16.92;13.32;;;11.00;99.90;;;;;;4900505;29;20147;-74
2022/11/11 05:42:11;;;;;;;19.60;13.77;;;11.00;99.90;;;;;;4897124;29;20228;-72
2022/11/11 05:44:37;;;;;;;17.70;13.27;;;11.00;99.90;;;;;;4885472;29;20504;-72
2022/11/11 05:47:03;;;;;;;19.98;15.05;;;10.90;99.90;;;;;;4901179;29;20516;-72
2022/11/11 05:49:29;;;;;;;18.25;13.82;;;10.90;99.90;;;;;;4900177;29;20123;-73
2022/11/11 05:51:55;;;;;;;17.15;13.95;;;10.90;99.90;;;;;;4892787;29;20452;-72
2022/11/11 05:54:21;;;;;;;;;;;10.80;99.90;;;;;;4899787;29;20082;-72
2022/11/11 05:56:47;;;;;;;19.40;14.55;;;10.70;99.90;;;;;;4896263;29;19958;-73
2022/11/11 05:59:13;;;;;;;17.23;14.00;;;10.70;99.90;;;;;;4894886;29;20091;-73
2022/11/11 06:01:38;;;;;;;19.23;13.98;;;10.60;99.90;;;;;;4880688;29;20518;-72
2022/11/11 06:04:04;;;;;;;13.95;12.40;;;10.60;99.90;;;;;;4895788;29;20079;-72
2022/11/11 06:06:31;;;;;;;16.92;12.52;;;10.50;99.90;;;;;;4891127;29;20677;-73
2022/11/11 06:08:56;;;;;;;;;;;10.50;99.90;;;;;;4880806;29;20119;-73
2022/11/11 06:11:22;;;;;;;18.70;12.93;;;10.60;99.90;;;;;;4901570;29;20002;-73
2022/11/11 06:13:49;;;;;;;22.58;14.00;;;10.60;99.90;;;;;;4893821;29;20107;-73
2022/11/11 06:16:15;;;;;;;20.45;13.35;;;10.70;99.90;;;;;;4893148;29;20055;-73
2022/11/11 06:18:41;;;;;;;17.65;12.80;;;10.80;99.90;;;;;;4898981;29;20096;-73
2022/11/11 06:21:07;;;;;;;13.25;11.23;;;10.90;99.90;;;;;;4878032;29;20697;-73
2022/11/11 06:23:32;;;;;;;18.85;11.77;;;10.90;99.90;;;;;;4894702;29;20047;-74
2022/11/11 06:26:13;;;;;;;15.10;11.55;;;11.00;99.90;;;;;;4893246;29;20036;-73
2022/11/11 06:28:53;;;;;;;15.50;11.50;;;11.00;99.90;;;;;;4889743;29;20078;-70
2022/11/11 06:31:22;;;;;;;17.70;13.00;;;11.10;99.90;;;;;;4864193;29;20128;-71
2022/11/11 06:33:48;;;;;;;16.48;12.20;;;11.20;99.90;;;;;;4879877;29;20055;-80
2022/11/11 06:36:16;;;;;;;18.15;12.18;;;11.20;99.90;;;;;;4899647;29;20086;-79
2022/11/11 06:38:42;;;;;;;18.08;13.18;;;11.20;99.90;;;;;;4898459;29;20147;-79
2022/11/11 06:41:11;;;;;;;19.38;13.90;;;11.20;99.90;;;;;;4878681;29;20052;-79
2022/11/11 06:43:41;;;;;;;18.63;12.95;;;11.20;99.90;;;;;;4889786;29;20505;-79
2022/11/11 06:46:10;;;;;;;20.08;14.30;;;11.20;99.90;;;;;;4896513;29;20036;-79
2022/11/11 06:48:36;;;;;;;20.05;13.95;;;11.20;99.90;;;;;;4885962;29;20424;-80
2022/11/11 06:51:04;;;;;;;21.58;15.60;;;11.20;99.90;;;;;;4900495;29;20051;-79
2022/11/11 06:53:30;;;;;;;20.70;15.50;;;11.20;99.90;;;;;;4897294;29;20050;-80
2022/11/11 06:55:57;;;;;;;16.70;13.38;;;11.20;99.90;;;;;;4891629;29;20115;-79
2022/11/11 06:58:23;;;;;;;16.42;13.50;;;11.20;99.90;;;;;;4877721;29;20078;-79
2022/11/11 07:00:49;;;;;;;21.20;15.35;;;11.20;99.90;;;;;;4893494;29;20049;-79
2022/11/11 07:03:18;;;;;;;20.25;15.25;;;11.20;99.90;;;;;;4878564;29;20556;-79
2022/11/11 07:05:44;;;;;;;18.83;14.63;;;11.20;99.90;;;;;;4894458;29;20473;-81
2022/11/11 07:08:16;;;;;;;20.73;14.48;;;11.20;99.90;;;;;;4877489;29;20201;-81
2022/11/11 07:10:47;;;;;;;20.58;15.82;;;11.20;99.90;;;;;;4895138;29;20071;-79
2022/11/11 07:13:14;;;;;;;18.65;14.77;;;11.20;99.90;;;;;;4893066;29;20064;-80
2022/11/11 07:15:42;;;;;;;18.92;14.13;;;11.20;99.90;;;;;;4901310;29;20128;-78
2022/11/11 07:18:08;;;;;;;18.90;14.30;;;11.20;99.90;;;;;;4890059;29;20048;-79
2022/11/11 07:20:34;;;;;;;17.85;13.93;;;11.20;99.90;;;;;;4863096;29;20044;-80
2022/11/11 07:23:00;;;;;;;19.85;15.13;;;11.20;99.90;;;;;;4904490;29;20501;-79
2022/11/11 07:25:26;;;;;;;19.70;14.57;;;11.20;99.90;;;;;;4891891;29;20051;-78
2022/11/11 07:27:52;;;;;;;;;;;11.20;99.90;;;;;;4888992;29;20375;-79
2022/11/11 07:30:18;;;;;;;19.48;14.63;;;11.20;99.90;;;;;;4891842;29;19930;-78
2022/11/11 07:32:50;;;;;;;19.98;15.25;;;11.20;99.90;;;;;;4891024;29;20055;-78
2022/11/11 07:35:17;;;;;;;21.08;14.18;;;11.20;99.90;;;;;;4915370;29;20099;-77
2022/11/11 07:37:43;;;;;;;19.33;15.15;;;11.10;99.90;;;;;;4876691;29;20044;-78
2022/11/11 07:40:11;;;;;;;16.05;12.75;;;11.10;99.90;;;;;;4900361;29;20045;-78
2022/11/11 07:42:41;;;;;;;24.65;17.27;;;11.20;99.90;;;;;;4894448;29;20099;-77
2022/11/11 07:45:09;;;;;;;22.67;15.13;;;11.20;99.90;;;;;;4892239;29;20144;-79
2022/11/11 07:47:35;;;;;;;22.52;15.20;;;11.20;99.90;;;;;;4890909;29;20056;-79
2022/11/11 07:50:02;;;;;;;19.48;14.95;;;11.20;99.90;;;;;;4891609;29;20048;-80
2022/11/11 07:52:28;;;;;;;18.45;14.43;;;11.20;99.90;;;;;;4897881;29;20075;-79
2022/11/11 07:54:54;;;;;;;19.83;15.18;;;11.30;99.90;;;;;;4882735;29;21284;-79
2022/11/11 07:57:20;;;;;;;19.38;14.35;;;11.30;99.90;;;;;;4890522;29;20056;-78
2022/11/11 07:59:46;;;;;;;21.55;15.63;;;11.30;99.90;;;;;;4887248;29;20431;-78
2022/11/11 08:02:13;;;;;;;23.52;15.45;;;11.30;99.90;;;;;;4899353;29;20243;-78
2022/11/11 08:04:38;;;;;;;20.17;14.82;;;11.30;99.90;;;;;;4883505;29;20450;-77
2022/11/11 08:07:04;;;;;;;21.50;15.15;;;11.30;99.90;;;;;;4880862;29;20040;-78
2022/11/11 08:09:30;;;;;;;19.77;14.75;;;11.30;99.90;;;;;;4879921;29;20069;-78
2022/11/11 08:14:41;;;;;;;17.17;13.68;;;11.30;99.90;;;;;;4873815;29;20088;-78
2022/11/11 08:17:06;;;;;;;18.25;13.10;;;11.30;99.90;;;;;;4894071;29;20128;-79
2022/11/11 08:19:32;;;;;;;17.35;12.98;;;11.30;99.90;;;;;;4873809;29;20056;-79
2022/11/11 08:21:58;;;;;;;20.33;14.50;;;11.30;99.90;;;;;;4881920;29;20044;-77
2022/11/11 08:24:23;;;;;;;19.08;13.82;;;11.30;99.90;;;;;;4877220;29;20659;-79
2022/11/11 08:26:49;;;;;;;19.55;13.63;;;11.30;99.90;;;;;;4883970;29;20047;-78
2022/11/11 08:29:15;;;;;;;18.42;12.90;;;11.30;99.90;;;;;;4860978;29;20032;-77
2022/11/11 08:31:40;;;;;;;19.48;14.95;;;11.30;99.90;;;;;;4882566;29;20866;-77
2022/11/11 08:34:06;;;;;;;19.17;13.90;;;11.30;99.90;;;;;;4879529;29;20045;-77
2022/11/11 08:36:32;;;;;;;17.67;13.63;;;11.40;99.90;;;;;;4896830;29;20044;-79
2022/11/11 08:38:58;;;;;;;19.05;13.65;;;11.30;99.90;;;;;;4882111;29;20143;-77
2022/11/11 08:41:24;;;;;;;21.38;13.25;;;11.30;99.90;;;;;;4864746;29;20176;-78
2022/11/11 08:43:54;;;;;;;19.77;13.95;;;11.40;99.90;;;;;;4881281;29;20044;-79
2022/11/11 08:46:21;;;;;;;18.70;12.65;;;11.30;99.90;;;;;;4891613;29;20471;-78
2022/11/11 08:48:47;;;;;;;16.95;12.98;;;11.40;99.90;;;;;;4888526;29;20548;-77
2022/11/11 08:51:13;;;;;;;17.85;13.05;;;11.30;99.90;;;;;;4862323;29;20048;-78
2022/11/11 08:53:39;;;;;;;18.45;13.35;;;11.40;99.90;;;;;;4899984;29;20174;-78
2022/11/11 08:56:05;;;;;;;18.35;12.85;;;11.40;99.90;;;;;;4884665;29;20479;-79
2022/11/11 08:58:31;;;;;;;;;;;11.30;99.90;;;;;;4864384;29;20056;-76
2022/11/11 09:00:57;;;;;;;16.58;12.00;;;11.40;99.90;;;;;;4881694;29;19933;-77
2022/11/11 09:03:23;;;;;;;15.43;12.25;;;11.40;99.90;;;;;;4891260;29;20407;-77
2022/11/11 09:05:49;;;;;;;18.52;13.63;;;11.40;99.90;;;;;;4880899;29;20048;-78
2022/11/11 09:08:15;;;;;;;18.30;13.77;;;11.40;99.90;;;;;;4860470;29;20033;-79
2022/11/11 09:10:41;;;;;;;18.65;13.52;;;11.40;99.90;;;;;;4883142;29;20052;-78
2022/11/11 09:13:06;;;;;;;18.13;13.32;;;11.40;99.90;;;;;;4897569;29;20404;-78
2022/11/11 09:15:33;;;;;;;20.88;14.13;;;11.40;99.90;;;;;;4884138;29;20131;-79
2022/11/11 09:17:59;;;;;;;20.20;13.82;;;11.40;99.90;;;;;;4887987;29;20055;-79
2022/11/11 09:20:25;;;;;;;16.60;12.90;;;11.40;99.90;;;;;;4894895;29;20347;-79
2022/11/11 09:22:51;;;;;;;16.85;12.57;;;11.40;99.90;;;;;;4880351;29;20055;-79
2022/11/11 09:25:18;;;;;;;16.90;12.80;;;11.40;99.90;;;;;;4895315;29;20044;-78
2022/11/11 09:27:52;;;;;;;17.60;13.02;;;11.40;99.90;;;;;;4881797;29;20450;-79
2022/11/11 09:30:17;;;;;;;18.55;14.32;;;11.40;99.90;;;;;;4875957;29;20087;-78
2022/11/11 09:32:43;;;;;;;19.67;13.80;;;11.40;99.90;;;;;;4882399;29;20076;-79
2022/11/11 09:35:09;;;;;;;16.30;11.73;;;11.30;99.90;;;;;;4879619;29;20040;-79
2022/11/11 09:37:34;;;;;;;17.33;12.60;;;11.40;99.90;;;;;;4882737;29;20048;-79
2022/11/11 09:40:00;;;;;;;17.45;13.05;;;11.40;99.90;;;;;;4877534;29;20049;-80
2022/11/11 09:42:41;;;;;;;19.42;13.63;;;11.30;99.90;;;;;;4879960;29;20088;-80
2022/11/11 09:45:10;;;;;;;18.17;13.13;;;11.30;99.90;;;;;;4877729;29;20043;-78
2022/11/11 09:48:19;;;;;;;15.50;12.57;;;11.30;99.90;;;;;;4862448;29;20036;-79
2022/11/11 09:50:53;;;;;;;14.75;12.52;;;11.30;99.90;;;;;;4887738;29;20048;-80
2022/11/11 09:53:43;;;;;;;17.27;12.48;;;11.20;99.90;;;;;;4876428;29;20056;-79
2022/11/11 09:56:16;;;;;;;16.38;12.07;;;11.20;99.90;;;;;;4864380;29;20141;-79
2022/11/11 09:59:07;;;;;;;17.25;11.93;;;11.20;99.90;;;;;;4894218;29;20056;-81
2022/11/11 10:01:41;;;;;;;14.85;11.75;;;11.20;99.90;;;;;;4896741;29;20048;-81
2022/11/11 10:04:15;;;;;;;17.77;12.50;;;11.20;99.90;;;;;;4895780;29;20058;-80
2022/11/11 10:06:42;;;;;;;16.80;12.73;;;11.20;99.90;;;;;;4910106;29;20048;-72
2022/11/11 10:09:16;;;;;;;;;;;11.20;99.90;;;;;;4895517;29;20044;-71
2022/11/11 10:11:52;;;;;;;19.27;13.85;;;11.20;99.90;;;;;;4895273;29;19927;-72
2022/11/11 10:14:18;;;;;;;18.38;12.52;;;11.20;99.90;;;;;;4911327;29;20087;-72
2022/11/11 10:17:04;;;;;;;18.70;12.70;;;11.20;99.90;;;;;;4898007;29;20407;-72
2022/11/11 10:19:37;;;;;;;18.23;12.18;;;11.10;99.90;;;;;;4882650;29;20083;-71
2022/11/11 10:22:24;;;;;;;18.92;13.73;;;11.10;99.90;;;;;;4895742;29;20135;-71
2022/11/11 10:25:07;;;;;;;13.68;11.13;;;11.10;99.90;;;;;;4912134;29;20396;-72
2022/11/11 10:27:33;;;;;;;18.05;12.70;;;11.10;99.90;;;;;;4891110;29;20083;-73
2022/11/11 10:30:00;;;;;;;;;;;11.10;99.90;;;;;;4861999;29;20048;-73
2022/11/11 10:32:33;;;;;;;16.80;12.25;;;11.20;99.90;;;;;;4920574;29;19981;-71
2022/11/11 10:35:19;;;;;;;16.98;12.48;;;11.20;99.90;;;;;;4892137;29;20056;-72
2022/11/11 10:37:45;;;;;;;19.20;13.45;;;11.20;99.90;;;;;;4906107;29;20119;-72
2022/11/11 10:40:11;;;;;;;;;;;11.20;99.90;;;;;;4903420;29;20393;-72
2022/11/11 10:42:37;;;;;;;18.52;13.23;;;11.30;99.90;;;;;;4881101;29;19926;-72
2022/11/11 10:45:12;;;;;;;18.10;12.73;;;11.30;99.90;;;;;;4895240;29;20047;-73
2022/11/11 10:47:41;;;;;;;15.60;12.02;;;11.20;99.90;;;;;;4907518;29;20048;-72
2022/11/11 10:50:25;;;;;;;18.50;13.18;;;11.30;99.90;;;;;;4888794;29;20051;-72
2022/11/11 10:53:04;;;;;;;16.08;12.52;;;11.30;99.90;;;;;;4883000;29;20056;-73
2022/11/11 10:55:48;;;;;;;15.48;12.88;;;11.30;99.90;;;;;;4897875;29;20457;-73
2022/11/11 10:58:50;;;;;;;14.93;11.90;;;11.30;99.90;;;;;;4897902;29;20094;-73
2022/11/11 11:01:21;;;;;;;15.63;12.45;;;11.30;99.90;;;;;;4897894;29;20576;-71
2022/11/11 11:03:56;;;;;;;15.80;12.32;;;11.30;99.90;;;;;;4882136;29;20048;-71
2022/11/11 11:06:28;;;;;;;14.60;12.23;;;11.30;99.90;;;;;;4897666;29;20043;-73
2022/11/11 11:09:18;;;;;;;16.80;12.10;;;11.40;99.90;;;;;;4883071;29;20096;-71
2022/11/11 11:11:52;;;;;;;17.30;12.48;;;11.40;99.90;;;;;;4874178;29;20135;-72
2022/11/11 11:14:31;;;;;;;16.38;12.60;;;11.40;99.90;;;;;;4897604;29;20050;-72
2022/11/11 11:17:06;;;;;;;15.75;12.82;;;11.40;99.90;;;;;;4898985;29;20044;-72
2022/11/11 11:19:31;;;;;;;15.73;12.35;;;11.50;99.90;;;;;;4881961;29;20422;-73
2022/11/11 11:21:59;;;;;;;14.88;12.88;;;11.50;99.90;;;;;;4895786;29;20131;-73
2022/11/11 11:24:30;;;;;;;14.18;12.05;;;11.50;99.90;;;;;;4899138;29;20051;-72
2022/11/11 11:27:01;;;;;;;15.55;12.00;;;11.60;99.90;;;;;;4905571;29;21099;-72
2022/11/11 11:29:37;;;;;;;15.32;12.27;;;11.60;99.90;;;;;;4890256;29;20036;-73
2022/11/11 11:32:20;;;;;;;14.70;11.88;;;11.60;99.90;;;;;;4891161;29;20528;-72
2022/11/11 11:34:52;;;;;;;12.05;10.73;;;11.60;99.90;;;;;;4892322;29;20466;-72
2022/11/11 11:37:20;;;;;;;16.80;12.05;;;11.60;99.90;;;;;;4889642;29;20047;-73
2022/11/11 11:39:46;;;;;;;12.60;10.43;;;11.60;99.90;;;;;;4889567;29;20101;-73
2022/11/11 11:42:30;;;;;;;14.50;11.93;;;11.60;99.90;;;;;;4894008;29;20036;-72
2022/11/11 11:44:56;;;;;;;13.23;11.40;;;11.60;99.90;;;;;;4875092;29;20453;-72
2022/11/11 11:47:54;;;;;;;13.45;10.85;;;11.60;99.90;;;;;;4890525;29;20044;-73
2022/11/11 11:50:38;;;;;;;;;;;11.60;99.90;;;;;;4874025;29;20052;-72
2022/11/11 11:53:07;;;;;;;15.13;11.05;;;11.60;99.90;;;;;;4907421;29;19923;-73
2022/11/11 11:55:42;;;;;;;11.85;9.43;;;11.60;99.90;;;;;;4902021;29;20135;-72
2022/11/11 11:58:59;;;;;;;15.68;10.82;;;11.70;99.90;;;;;;4888684;29;20119;-71
2022/11/11 12:01:33;;;;;;;15.25;11.23;;;11.70;99.90;;;;;;4856939;29;20079;-73
2022/11/11 12:04:23;;;;;;;15.13;10.55;;;11.60;99.90;;;;;;4887268;29;20056;-73
2022/11/11 12:07:00;;;;;;;12.90;10.40;;;11.60;99.90;;;;;;4890708;29;20058;-73
2022/11/11 12:10:18;;;;;;;14.30;9.80;;;11.70;99.90;;;;;;4901191;29;20104;-74
2022/11/11 12:12:55;;;;;;;15.40;11.73;;;11.60;99.90;;;;;;4853140;29;20052;-71
2022/11/11 12:15:37;;;;;;;11.95;9.65;;;11.60;99.90;;;;;;4885027;29;20571;-73
2022/11/11 12:18:24;;;;;;;12.52;9.98;;;11.60;99.90;;;;;;4889399;29;20625;-72
2022/11/11 12:21:01;;;;;;;12.00;9.73;;;11.60;99.90;;;;;;4889627;29;20044;-73
2022/11/11 12:23:49;;;;;;;12.85;10.45;;;11.60;99.90;;;;;;4892179;29;20056;-73
2022/11/11 12:26:30;;;;;;;14.30;9.82;;;11.60;99.90;;;;;;4892451;29;20059;-72
2022/11/11 12:29:34;;;;;;;12.68;10.25;;;11.60;99.90;;;;;;4879068;29;20040;-72
2022/11/11 12:32:41;;;;;;;15.75;10.27;;;11.60;99.90;;;;;;4862750;29;20071;-73
2022/11/11 12:35:44;;;;;;;14.35;10.68;;;11.60;99.90;;;;;;4892970;29;20115;-72
2022/11/11 12:38:31;;;;;;;13.48;10.77;;;11.60;99.90;;;;;;4873312;29;20048;-72
2022/11/11 12:41:24;;;;;;;14.35;11.02;;;11.60;99.90;;;;;;4892593;29;20040;-72
2022/11/11 12:44:08;;;;;;;13.80;11.20;;;11.50;99.90;;;;;;4885950;29;20554;-72
2022/11/11 12:46:56;;;;;;;15.18;12.40;;;11.60;99.90;;;;;;4869612;29;20044;-72
2022/11/11 12:50:04;;;;;;;13.18;10.23;;;11.50;99.90;;;;;;4842696;29;20710;-72
2022/11/11 12:52:56;;;;;;;13.75;11.38;;;11.50;99.90;;;;;;4898322;29;20126;-72
2022/11/11 12:55:26;;;;;;;14.13;10.98;;;11.50;99.90;;;;;;4891541;29;20626;-72
2022/11/11 12:58:04;;;;;;;12.82;10.25;;;11.50;99.90;;;;;;4898075;29;20421;-72
2022/11/11 13:00:32;;;;;;;12.13;9.65;;;11.50;99.90;;;;;;4877248;29;20048;-72
2022/11/11 13:03:34;;;;;;;10.35;7.95;;;11.50;99.90;;;;;;4888097;29;20144;-72
2022/11/11 13:06:25;;;;;;;13.25;10.60;;;11.50;99.90;;;;;;4896419;29;20123;-73
2022/11/11 13:08:53;;;;;;;12.23;9.80;;;11.50;99.90;;;;;;4896808;29;20047;-72
2022/11/11 13:11:25;;;;;;;14.45;11.43;;;11.50;99.90;;;;;;4887269;29;20086;-73
2022/11/11 13:14:06;;;;;;;13.52;10.60;;;11.50;99.90;;;;;;4896417;29;20048;-74
2022/11/11 13:16:31;;;;;;;16.63;11.73;;;11.50;99.90;;;;;;4895829;29;20496;-80
2022/11/11 13:19:30;;;;;;;12.20;10.23;;;11.50;99.90;;;;;;4895067;29;20044;-79
2022/11/11 13:22:21;;;;;;;11.80;9.95;;;11.50;99.90;;;;;;4908999;29;20040;-79
2022/11/11 13:24:48;;;;;;;15.93;11.77;;;11.40;99.90;;;;;;4888873;29;20099;-80
2022/11/11 13:27:41;;;;;;;12.98;9.88;;;11.40;99.90;;;;;;4894765;29;20048;-79
2022/11/11 13:30:10;;;;;;;12.70;8.95;;;11.40;99.90;;;;;;4907111;29;20044;-79
2022/11/11 13:33:15;;;;;;;12.13;10.07;;;11.40;99.90;;;;;;4876621;29;20590;-80
2022/11/11 13:35:55;;;;;;;11.40;9.82;;;11.30;99.90;;;;;;4882112;29;20492;-80
2022/11/11 13:38:29;;;;;;;12.43;8.70;;;11.40;99.90;;;;;;4894045;29;20052;-80
2022/11/11 13:40:59;;;;;;;14.50;11.27;;;11.40;99.90;;;;;;4910488;29;20063;-80
2022/11/11 13:43:31;;;;;;;12.70;9.77;;;11.40;99.90;;;;;;4891788;29;20076;-80
2022/11/11 13:45:59;;;;;;;14.15;10.88;;;11.40;99.90;;;;;;4895858;29;20444;-80
2022/11/11 13:48:46;;;;;;;12.38;10.20;;;11.40;99.90;;;;;;4892361;29;20108;-80
2022/11/11 13:51:26;;;;;;;15.32;10.77;;;11.40;99.90;;;;;;4890624;29;20044;-80
2022/11/11 13:53:52;;;;;;;13.13;10.52;;;11.40;99.90;;;;;;4904844;29;20389;-79
2022/11/11 13:56:41;;;;;;;14.80;11.65;;;11.40;99.90;;;;;;4891383;29;20520;-79
2022/11/11 13:59:21;;;;;;;14.98;11.70;;;11.40;99.90;;;;;;4889570;29;20554;-79
2022/11/11 14:02:25;;;;;;;12.27;9.90;;;11.40;99.90;;;;;;4891410;29;20036;-80
2022/11/11 14:05:09;;;;;;;14.65;10.48;;;11.40;99.90;;;;;;4895735;29;20058;-79